createdAt,value
2023-05-28T00:01:55.752Z,42.90
2023-05-28T00:03:57.478Z,42.90
2023-05-28T00:05:59.471Z,42.90
2023-05-28T00:08:01.904Z,42.90
2023-05-28T00:10:04.080Z,43.10
2023-05-28T00:12:08.002Z,43.20
2023-05-28T00:14:09.698Z,43.10
2023-05-28T00:16:14.130Z,43.10
2023-05-28T00:18:16.054Z,43.10
2023-05-28T00:20:18.109Z,43.40
2023-05-28T00:22:20.559Z,43.40
2023-05-28T00:24:22.275Z,43.60
2023-05-28T00:26:23.939Z,43.50
2023-05-28T00:28:25.905Z,43.50
2023-05-28T00:30:27.740Z,43.50
2023-05-28T00:32:29.619Z,43.60
2023-05-28T00:34:31.897Z,43.60
2023-05-28T00:36:33.551Z,43.90
2023-05-28T00:38:35.221Z,44.00
2023-05-28T00:40:36.933Z,43.90
2023-05-28T00:42:38.668Z,43.80
2023-05-28T00:44:40.474Z,43.80
2023-05-28T00:46:44.074Z,43.90
2023-05-28T00:48:46.740Z,44.10
2023-05-28T00:50:48.568Z,44.00
2023-05-28T00:52:51.530Z,44.10
2023-05-28T00:54:53.604Z,44.10
2023-05-28T00:56:55.330Z,44.20
2023-05-28T00:58:57.060Z,44.30
2023-05-28T01:00:59.093Z,44.30
2023-05-28T01:03:01.458Z,44.40
2023-05-28T01:05:03.372Z,45.10
2023-05-28T01:07:05.345Z,44.40
2023-05-28T01:09:07.760Z,44.50
2023-05-28T01:11:11.196Z,44.60
2023-05-28T01:13:14.786Z,44.90
2023-05-28T01:15:16.508Z,44.70
2023-05-28T01:17:19.005Z,44.60
2023-05-28T01:19:28.309Z,44.70
2023-05-28T01:21:31.854Z,44.70
2023-05-28T01:23:43.065Z,44.70
2023-05-28T01:25:45.949Z,44.80
2023-05-28T01:27:47.820Z,44.80
2023-05-28T01:29:49.520Z,44.80
2023-05-28T01:31:51.321Z,44.70
2023-05-28T01:33:53.041Z,45.00
2023-05-28T01:35:56.975Z,45.00
2023-05-28T01:38:00.380Z,44.80
2023-05-28T01:40:04.017Z,44.90
2023-05-28T01:42:06.692Z,45.10
2023-05-28T01:44:08.454Z,45.00
2023-05-28T01:46:11.090Z,45.00
2023-05-28T01:48:12.879Z,45.00
2023-05-28T01:50:16.439Z,45.10
2023-05-28T01:52:18.519Z,45.40
2023-05-28T01:54:21.567Z,45.10
2023-05-28T01:56:23.293Z,45.10
2023-05-28T01:58:25.362Z,45.20
2023-05-28T02:00:27.402Z,45.30
2023-05-28T02:02:29.128Z,45.50
2023-05-28T02:04:31.001Z,45.50
2023-05-28T02:06:34.285Z,45.70
2023-05-28T02:08:35.912Z,45.40
2023-05-28T02:10:37.629Z,45.70
2023-05-28T02:12:39.427Z,45.60
2023-05-28T02:14:41.774Z,45.60
2023-05-28T02:16:46.151Z,45.40
2023-05-28T02:18:50.848Z,45.30
2023-05-28T02:20:52.599Z,45.20
2023-05-28T02:22:54.373Z,45.80
2023-05-28T02:24:56.066Z,45.50
2023-05-28T02:26:57.732Z,45.90
2023-05-28T02:28:59.392Z,46.10
2023-05-28T02:31:01.339Z,46.20
2023-05-28T02:33:04.332Z,46.10
2023-05-28T02:35:06.735Z,46.40
2023-05-28T02:37:08.531Z,46.50
2023-05-28T02:39:11.700Z,46.70
2023-05-28T02:41:13.539Z,46.50
2023-05-28T02:43:21.192Z,46.60
2023-05-28T02:45:22.850Z,46.80
2023-05-28T02:47:24.641Z,46.60
2023-05-28T02:49:26.588Z,46.60
2023-05-28T02:51:28.272Z,46.50
2023-05-28T02:53:52.826Z,46.70
2023-05-28T02:55:54.821Z,46.90
2023-05-28T02:57:57.069Z,46.90
2023-05-28T02:59:59.547Z,46.70
2023-05-28T03:02:02.239Z,47.20
2023-05-28T03:04:03.976Z,46.90
2023-05-28T03:06:08.163Z,47.00
2023-05-28T03:08:30.160Z,48.00
2023-05-28T03:10:31.851Z,46.70
2023-05-28T03:12:33.812Z,46.70
2023-05-28T03:14:35.599Z,47.00
2023-05-28T03:16:37.418Z,46.90
2023-05-28T03:18:43.016Z,46.90
2023-05-28T03:20:46.217Z,46.80
2023-05-28T03:22:49.557Z,46.70
2023-05-28T03:24:52.701Z,47.20
2023-05-28T03:26:58.424Z,47.00
2023-05-28T03:29:00.239Z,47.30
2023-05-28T03:31:28.678Z,47.30
2023-05-28T03:33:31.045Z,47.10
2023-05-28T03:35:32.723Z,47.30
2023-05-28T03:37:34.489Z,47.10
2023-05-28T03:39:39.610Z,47.10
2023-05-28T03:41:41.520Z,46.90
2023-05-28T03:43:44.766Z,47.40
2023-05-28T03:45:46.459Z,47.30
2023-05-28T03:47:48.879Z,47.40
2023-05-28T03:49:50.801Z,47.30
2023-05-28T03:51:52.557Z,47.20
2023-05-28T03:53:54.438Z,47.50
2023-05-28T03:55:56.724Z,47.20
2023-05-28T03:58:00.612Z,47.50
2023-05-28T04:00:02.386Z,47.60
2023-05-28T04:02:06.547Z,47.30
2023-05-28T04:04:08.719Z,47.40
2023-05-28T04:06:11.354Z,47.90
2023-05-28T04:08:13.540Z,47.90
2023-05-28T04:10:15.213Z,47.60
2023-05-28T04:12:16.959Z,47.70
2023-05-28T04:14:19.015Z,48.10
2023-05-28T04:16:24.294Z,47.70
2023-05-28T04:18:26.389Z,47.90
2023-05-28T04:20:28.679Z,47.70
2023-05-28T04:22:30.708Z,48.10
2023-05-28T04:24:32.587Z,48.30
2023-05-28T04:26:35.598Z,48.00
2023-05-28T04:28:37.984Z,48.00
2023-05-28T04:30:39.666Z,47.90
2023-05-28T04:32:41.461Z,48.20
2023-05-28T04:34:43.190Z,48.00
2023-05-28T04:36:46.824Z,48.10
2023-05-28T04:38:49.049Z,48.00
2023-05-28T04:40:54.356Z,48.10
2023-05-28T04:42:56.613Z,48.40
2023-05-28T04:45:03.617Z,48.60
2023-05-28T04:47:06.260Z,48.20
2023-05-28T04:49:07.971Z,48.40
2023-05-28T04:51:11.347Z,48.70
2023-05-28T04:53:13.048Z,48.60
2023-05-28T04:55:15.316Z,48.40
2023-05-28T04:57:17.104Z,48.90
2023-05-28T04:59:19.266Z,48.70
2023-05-28T05:01:21.227Z,48.90
2023-05-28T05:03:23.080Z,48.70
2023-05-28T05:05:24.829Z,48.80
2023-05-28T05:07:27.003Z,48.70
2023-05-28T05:09:29.012Z,49.30
2023-05-28T05:11:31.925Z,49.20
2023-05-28T05:13:33.798Z,49.20
2023-05-28T05:15:35.476Z,49.20
2023-05-28T05:17:37.455Z,49.30
2023-05-28T05:19:39.194Z,48.90
2023-05-28T05:21:41.024Z,49.10
2023-05-28T05:23:42.894Z,49.00
2023-05-28T05:25:44.655Z,49.50
2023-05-28T05:27:49.921Z,49.70
2023-05-28T05:29:52.289Z,49.40
2023-05-28T05:31:54.029Z,49.10
2023-05-28T05:33:55.871Z,49.20
2023-05-28T05:35:57.716Z,49.40
2023-05-28T05:38:38.110Z,49.60
2023-05-28T05:40:49.828Z,49.60
2023-05-28T05:43:10.463Z,49.20
2023-05-28T05:45:13.971Z,49.40
2023-05-28T05:47:15.736Z,49.40
2023-05-28T05:49:17.427Z,49.20
2023-05-28T05:51:19.739Z,49.60
2023-05-28T05:53:22.092Z,49.60
2023-05-28T05:55:24.000Z,49.40
2023-05-28T05:57:27.393Z,49.50
2023-05-28T05:59:29.878Z,49.50
2023-05-28T06:01:32.360Z,49.50
2023-05-28T06:03:34.075Z,49.60
2023-05-28T06:06:01.757Z,49.80
2023-05-28T06:08:21.830Z,49.50
2023-05-28T06:10:42.171Z,49.50
2023-05-28T06:12:44.021Z,49.80
2023-05-28T06:14:45.979Z,49.60
2023-05-28T06:16:47.796Z,49.60
2023-05-28T06:18:49.609Z,49.70
2023-05-28T06:20:51.349Z,49.80
2023-05-28T06:22:53.167Z,49.40
2023-05-28T06:24:57.107Z,49.70
2023-05-28T06:26:59.015Z,49.40
2023-05-28T06:29:00.854Z,49.60
2023-05-28T06:31:04.200Z,49.40
2023-05-28T06:33:06.110Z,49.30
2023-05-28T06:35:09.154Z,49.50
2023-05-28T06:37:11.215Z,49.40
2023-05-28T06:39:12.886Z,49.40
2023-05-28T06:41:16.461Z,49.50
2023-05-28T06:43:22.409Z,49.40
2023-05-28T06:45:43.912Z,49.30
2023-05-28T06:47:48.074Z,49.30
2023-05-28T06:49:52.230Z,49.30
2023-05-28T06:51:53.993Z,49.30
2023-05-28T06:53:56.004Z,49.10
2023-05-28T06:56:02.354Z,49.10
2023-05-28T06:58:22.791Z,49.00
2023-05-28T07:00:53.065Z,48.80
2023-05-28T07:03:15.117Z,48.90
2023-05-28T07:05:22.175Z,48.90
2023-05-28T07:07:24.012Z,49.20
2023-05-28T07:09:26.741Z,49.00
2023-05-28T07:11:28.429Z,48.70
2023-05-28T07:13:31.088Z,48.70
2023-05-28T07:15:32.971Z,48.70
2023-05-28T07:17:35.495Z,48.50
2023-05-28T07:19:37.375Z,48.40
2023-05-28T07:21:39.775Z,48.20
2023-05-28T07:23:41.712Z,48.10
2023-05-28T07:25:43.831Z,48.10
2023-05-28T07:27:45.812Z,48.10
2023-05-28T07:29:51.568Z,48.00
2023-05-28T07:31:54.594Z,47.90
2023-05-28T07:33:59.382Z,47.80
2023-05-28T07:36:07.075Z,47.60
2023-05-28T07:38:15.461Z,47.70
2023-05-28T07:40:19.659Z,47.50
2023-05-28T07:42:23.383Z,47.70
2023-05-28T07:44:34.721Z,47.50
2023-05-28T07:46:37.774Z,47.60
2023-05-28T07:48:45.314Z,47.50
2023-05-28T07:51:13.602Z,47.50
2023-05-28T07:53:21.111Z,47.40
2023-05-28T07:55:23.175Z,47.30
2023-05-28T07:57:25.395Z,47.30
2023-05-28T07:59:27.828Z,47.30
2023-05-28T08:01:30.869Z,47.20
2023-05-28T08:03:32.666Z,47.20
2023-05-28T08:05:37.070Z,47.20
2023-05-28T08:07:38.937Z,47.10
2023-05-28T08:09:42.194Z,47.10
2023-05-28T08:11:46.662Z,47.00
2023-05-28T08:13:49.250Z,47.00
2023-05-28T08:15:52.511Z,46.90
2023-05-28T08:17:57.002Z,46.90
2023-05-28T08:20:02.757Z,46.90
2023-05-28T08:22:29.741Z,47.00
2023-05-28T08:24:31.509Z,47.00
2023-05-28T08:26:33.292Z,46.90
2023-05-28T08:28:37.967Z,46.90
2023-05-28T08:30:40.158Z,46.90
2023-05-28T08:32:51.083Z,46.80
2023-05-28T08:34:52.988Z,46.80
2023-05-28T08:36:54.781Z,46.70
2023-05-28T08:39:02.841Z,46.80
2023-05-28T08:41:06.185Z,46.70
2023-05-28T08:43:08.672Z,46.70
2023-05-28T08:45:10.788Z,46.60
2023-05-28T08:47:15.140Z,46.60
2023-05-28T08:49:25.856Z,46.70
2023-05-28T08:51:28.546Z,46.60
2023-05-28T08:53:36.949Z,46.60
2023-05-28T08:55:39.019Z,46.50
2023-05-28T08:57:49.808Z,46.50
2023-05-28T08:59:53.856Z,47.10
2023-05-28T09:01:57.215Z,46.30
2023-05-28T09:03:59.279Z,46.30
2023-05-28T09:06:07.821Z,46.20
2023-05-28T09:08:10.917Z,46.30
2023-05-28T09:10:12.951Z,46.10
2023-05-28T09:12:21.520Z,46.10
2023-05-28T09:14:25.031Z,46.00
2023-05-28T09:16:27.412Z,46.00
2023-05-28T09:18:37.053Z,45.90
2023-05-28T09:20:39.025Z,45.90
2023-05-28T09:22:41.478Z,45.90
2023-05-28T09:24:55.950Z,45.90
2023-05-28T09:27:38.822Z,45.40
2023-05-28T09:29:41.151Z,45.50
2023-05-28T09:31:42.993Z,45.60
2023-05-28T09:33:48.055Z,45.40
2023-05-28T09:35:58.968Z,45.30
2023-05-28T09:38:12.004Z,45.40
2023-05-28T09:40:15.031Z,45.30
2023-05-28T09:42:16.813Z,45.30
2023-05-28T09:44:20.868Z,45.30
2023-05-28T09:46:27.520Z,44.90
2023-05-28T09:48:40.549Z,44.90
2023-05-28T09:50:42.979Z,44.60
2023-05-28T09:52:46.075Z,44.30
2023-05-28T09:54:51.611Z,44.60
2023-05-28T09:56:54.955Z,44.10
2023-05-28T09:58:57.757Z,44.10
2023-05-28T10:01:04.899Z,44.40
2023-05-28T10:03:11.375Z,44.10
2023-05-28T10:05:14.304Z,43.80
2023-05-28T10:07:16.487Z,43.80
2023-05-28T10:09:18.616Z,44.10
2023-05-28T10:11:23.478Z,43.80
2023-05-28T10:13:25.444Z,43.80
2023-05-28T10:15:27.625Z,43.90
2023-05-28T10:17:29.607Z,42.90
2023-05-28T10:19:31.384Z,43.50
2023-05-28T10:21:33.096Z,43.20
2023-05-28T10:23:34.901Z,43.40
2023-05-28T10:25:36.749Z,43.50
2023-05-28T10:27:44.084Z,43.50
2023-05-28T10:29:47.422Z,43.30
2023-05-28T10:32:01.891Z,42.90
2023-05-28T10:34:14.955Z,42.90
2023-05-28T10:36:17.778Z,43.10
2023-05-28T10:38:19.576Z,43.20
2023-05-28T10:40:24.865Z,43.10
2023-05-28T10:42:26.774Z,43.30
2023-05-28T10:44:48.432Z,42.90
2023-05-28T10:46:55.938Z,43.00
2023-05-28T10:49:06.671Z,42.80
2023-05-28T10:51:09.028Z,42.90
2023-05-28T10:53:12.542Z,42.70
2023-05-28T10:55:14.446Z,42.00
2023-05-28T10:57:17.658Z,42.50
2023-05-28T10:59:36.715Z,42.40
2023-05-28T11:01:39.517Z,42.40
2023-05-28T11:03:45.801Z,42.00
2023-05-28T11:05:47.700Z,42.40
2023-05-28T11:07:49.425Z,42.20
2023-05-28T11:09:52.885Z,42.30
2023-05-28T11:11:58.995Z,42.00
2023-05-28T11:14:01.992Z,42.30
2023-05-28T11:16:07.640Z,42.10
2023-05-28T11:18:09.361Z,42.00
2023-05-28T11:20:17.346Z,42.10
2023-05-28T11:22:19.869Z,42.20
2023-05-28T11:24:21.563Z,41.90
2023-05-28T11:26:23.768Z,41.90
2023-05-28T11:28:25.501Z,42.70
2023-05-28T11:30:27.298Z,42.30
2023-05-28T11:32:29.295Z,41.90
2023-05-28T11:34:31.204Z,42.20
2023-05-28T11:36:38.408Z,42.20
2023-05-28T11:38:40.060Z,42.30
2023-05-28T11:40:41.758Z,42.10
2023-05-28T11:42:44.457Z,42.30
2023-05-28T11:44:49.522Z,40.80
2023-05-28T11:46:54.408Z,41.30
2023-05-28T11:48:56.350Z,41.30
2023-05-28T11:50:59.897Z,41.30
2023-05-28T11:53:01.591Z,41.10
2023-05-28T11:55:03.751Z,41.30
2023-05-28T11:57:07.037Z,41.30
2023-05-28T11:59:08.744Z,41.30
2023-05-28T12:01:13.757Z,41.40
2023-05-28T12:03:15.721Z,41.30
2023-05-28T12:05:17.975Z,41.50
2023-05-28T12:07:19.707Z,41.70
2023-05-28T12:09:21.711Z,41.00
2023-05-28T12:11:27.206Z,41.20
2023-05-28T12:13:35.824Z,41.30
2023-05-28T12:15:37.534Z,41.30
2023-05-28T12:17:40.544Z,40.90
2023-05-28T12:19:42.333Z,40.50
2023-05-28T12:21:44.861Z,37.60
2023-05-28T12:23:46.889Z,37.90
2023-05-28T12:25:51.792Z,39.30
2023-05-28T12:27:57.500Z,39.70
2023-05-28T12:29:59.374Z,40.10
2023-05-28T12:32:01.279Z,40.20
2023-05-28T12:34:03.152Z,39.40
2023-05-28T12:36:05.121Z,40.00
2023-05-28T12:38:06.957Z,39.30
2023-05-28T12:40:08.894Z,39.40
2023-05-28T12:42:11.032Z,39.30
2023-05-28T12:44:12.779Z,39.70
2023-05-28T12:46:14.886Z,39.80
2023-05-28T12:48:16.704Z,39.30
2023-05-28T12:50:18.440Z,38.30
2023-05-28T12:52:20.290Z,38.30
2023-05-28T12:54:22.617Z,38.90
2023-05-28T12:56:24.614Z,38.80
2023-05-28T12:58:26.340Z,39.00
2023-05-28T13:00:28.069Z,39.00
2023-05-28T13:02:29.845Z,39.10
2023-05-28T13:04:31.628Z,39.40
2023-05-28T13:06:34.078Z,39.20
2023-05-28T13:08:35.790Z,39.10
2023-05-28T13:10:37.716Z,38.10
2023-05-28T13:12:39.432Z,37.90
2023-05-28T13:14:41.110Z,38.30
2023-05-28T13:16:42.845Z,36.90
2023-05-28T13:18:45.886Z,37.70
2023-05-28T13:20:47.641Z,38.00
2023-05-28T13:22:49.417Z,38.40
2023-05-28T13:24:51.090Z,38.70
2023-05-28T13:26:52.761Z,38.00
2023-05-28T13:28:54.485Z,38.30
2023-05-28T13:30:56.699Z,38.30
2023-05-28T13:32:58.800Z,38.60
2023-05-28T13:35:00.658Z,38.60
2023-05-28T13:37:02.409Z,38.30
2023-05-28T13:39:05.268Z,37.90
2023-05-28T13:41:08.445Z,37.60
2023-05-28T13:43:12.333Z,37.60
2023-05-28T13:45:14.219Z,36.20
2023-05-28T13:47:16.857Z,36.70
2023-05-28T13:49:18.664Z,37.00
2023-05-28T13:51:20.520Z,36.80
2023-05-28T13:53:22.362Z,36.60
2023-05-28T13:55:24.077Z,36.80
2023-05-28T13:57:25.930Z,37.20
2023-05-28T13:59:27.681Z,37.20
2023-05-28T14:01:29.549Z,37.60
2023-05-28T14:03:31.411Z,37.30
2023-05-28T14:05:34.697Z,36.90
2023-05-28T14:07:36.640Z,37.20
2023-05-28T14:09:38.500Z,37.10
2023-05-28T14:12:08.422Z,36.50
2023-05-28T14:14:01.900Z,36.80
2023-05-28T14:16:03.669Z,36.60
2023-05-28T14:18:07.408Z,36.60
2023-05-28T14:20:09.534Z,36.20
2023-05-28T14:22:11.369Z,36.00
2023-05-28T14:24:13.245Z,36.10
2023-05-28T14:26:14.951Z,37.30
2023-05-28T14:28:16.700Z,36.30
2023-05-28T14:30:18.513Z,36.10
2023-05-28T14:32:20.731Z,35.90
2023-05-28T14:34:22.598Z,36.10
2023-05-28T14:36:24.499Z,36.50
2023-05-28T14:38:26.215Z,36.20
2023-05-28T14:40:27.905Z,35.70
2023-05-28T14:42:29.625Z,34.90
2023-05-28T14:44:31.420Z,35.80
2023-05-28T14:46:33.133Z,35.20
2023-05-28T14:48:34.959Z,33.40
2023-05-28T14:50:36.711Z,33.50
2023-05-28T14:52:39.238Z,34.40
2023-05-28T14:54:41.201Z,34.70
2023-05-28T14:56:42.872Z,34.50
2023-05-28T14:58:44.692Z,34.70
2023-05-28T15:00:46.517Z,35.10
2023-05-28T15:02:48.475Z,34.90
2023-05-28T15:04:50.264Z,34.30
2023-05-28T15:06:51.956Z,34.70
2023-05-28T15:08:53.693Z,33.70
2023-05-28T15:10:55.416Z,34.00
2023-05-28T15:12:58.448Z,33.40
2023-05-28T15:15:00.268Z,33.60
2023-05-28T15:17:02.297Z,34.20
2023-05-28T15:19:04.060Z,33.00
2023-05-28T15:21:06.506Z,33.40
2023-05-28T15:23:08.326Z,33.60
2023-05-28T15:25:10.619Z,32.00
2023-05-28T15:27:12.381Z,33.00
2023-05-28T15:29:14.609Z,33.50
2023-05-28T15:31:17.482Z,33.00
2023-05-28T15:33:19.289Z,33.00
2023-05-28T15:35:21.143Z,33.50
2023-05-28T15:37:22.926Z,31.60
2023-05-28T15:39:24.790Z,33.00
2023-05-28T15:41:26.889Z,33.40
2023-05-28T15:43:28.697Z,33.10
2023-05-28T15:45:30.460Z,32.90
2023-05-28T15:47:32.169Z,32.80
2023-05-28T15:49:34.015Z,33.40
2023-05-28T15:51:35.757Z,33.70
2023-05-28T15:53:37.549Z,33.50
2023-05-28T15:55:39.410Z,31.70
2023-05-28T15:57:41.198Z,33.00
2023-05-28T15:59:44.670Z,31.50
2023-05-28T16:01:49.954Z,32.60
2023-05-28T16:03:51.938Z,32.60
2023-05-28T16:05:53.981Z,32.50
2023-05-28T16:07:55.877Z,32.50
2023-05-28T16:09:57.628Z,32.80
2023-05-28T16:12:01.201Z,32.90
2023-05-28T16:14:04.999Z,33.00
2023-05-28T16:16:07.175Z,32.90
2023-05-28T16:18:09.174Z,32.00
2023-05-28T16:20:11.225Z,32.30
2023-05-28T16:22:13.325Z,32.70
2023-05-28T16:24:15.953Z,32.20
2023-05-28T16:26:17.720Z,31.50
2023-05-28T16:28:20.256Z,32.00
2023-05-28T16:30:22.613Z,32.10
2023-05-28T16:32:24.815Z,32.40
2023-05-28T16:34:26.691Z,32.60
2023-05-28T16:36:28.466Z,32.90
2023-05-28T16:38:30.332Z,32.70
2023-05-28T16:40:32.313Z,32.90
2023-05-28T16:42:34.152Z,32.90
2023-05-28T16:44:35.862Z,32.00
2023-05-28T16:46:38.076Z,31.50
2023-05-28T16:48:39.958Z,31.50
2023-05-28T16:50:41.908Z,31.20
2023-05-28T16:52:43.567Z,30.90
2023-05-28T16:54:47.197Z,29.80
2023-05-28T16:56:48.918Z,31.60
2023-05-28T16:58:50.591Z,31.90
2023-05-28T17:00:53.395Z,29.30
2023-05-28T17:02:56.030Z,30.60
2023-05-28T17:04:57.816Z,31.00
2023-05-28T17:06:59.591Z,31.30
2023-05-28T17:09:01.289Z,31.00
2023-05-28T17:11:03.078Z,31.40
2023-05-28T17:13:05.163Z,31.50
2023-05-28T17:15:07.361Z,31.60
2023-05-28T17:17:09.177Z,31.10
2023-05-28T17:19:10.859Z,31.50
2023-05-28T17:21:12.544Z,31.60
2023-05-28T17:23:14.342Z,31.90
2023-05-28T17:25:16.196Z,32.30
2023-05-28T17:27:17.892Z,32.60
2023-05-28T17:29:19.709Z,32.60
2023-05-28T17:31:21.440Z,32.50
2023-05-28T17:33:23.158Z,32.80
2023-05-28T17:35:24.877Z,32.90
2023-05-28T17:37:27.382Z,32.90
2023-05-28T17:39:29.055Z,32.80
2023-05-28T17:41:31.332Z,32.90
2023-05-28T17:43:33.081Z,33.00
2023-05-28T17:45:34.939Z,33.10
2023-05-28T17:47:39.618Z,33.20
2023-05-28T17:49:44.051Z,33.30
2023-05-28T17:51:46.809Z,33.40
2023-05-28T17:53:49.049Z,33.70
2023-05-28T17:55:54.173Z,33.90
2023-05-28T17:57:55.867Z,34.20
2023-05-28T17:59:57.634Z,34.20
2023-05-28T18:01:59.481Z,34.40
2023-05-28T18:04:01.459Z,34.50
2023-05-28T18:06:03.598Z,34.80
2023-05-28T18:08:05.637Z,34.90
2023-05-28T18:10:09.485Z,35.10
2023-05-28T18:12:12.038Z,35.40
2023-05-28T18:14:13.855Z,35.40
2023-05-28T18:16:17.198Z,35.50
2023-05-28T18:18:19.072Z,36.40
2023-05-28T18:20:20.998Z,35.70
2023-05-28T18:22:22.934Z,35.80
2023-05-28T18:24:24.669Z,35.90
2023-05-28T18:26:27.583Z,35.90
2023-05-28T18:28:29.328Z,36.20
2023-05-28T18:30:31.211Z,36.20
2023-05-28T18:32:32.968Z,36.20
2023-05-28T18:34:35.043Z,36.40
2023-05-28T18:36:36.830Z,36.50
2023-05-28T18:38:38.630Z,36.60
2023-05-28T18:40:40.461Z,36.90
2023-05-28T18:42:42.208Z,37.00
2023-05-28T18:44:45.385Z,37.20
2023-05-28T18:46:47.267Z,37.20
2023-05-28T18:48:49.494Z,37.20
2023-05-28T18:50:51.372Z,37.30
2023-05-28T18:52:53.301Z,37.40
2023-05-28T18:54:55.340Z,37.60
2023-05-28T18:56:57.599Z,37.60
2023-05-28T18:59:02.619Z,37.70
2023-05-28T19:01:04.593Z,37.90
2023-05-28T19:03:06.478Z,37.90
2023-05-28T19:05:08.549Z,38.30
2023-05-28T19:07:10.371Z,38.20
2023-05-28T19:09:12.089Z,38.40
2023-05-28T19:11:13.807Z,38.40
2023-05-28T19:13:15.634Z,38.40
2023-05-28T19:15:17.407Z,38.40
2023-05-28T19:17:19.893Z,38.60
2023-05-28T19:19:21.700Z,38.70
2023-05-28T19:21:23.480Z,38.70
2023-05-28T19:23:25.258Z,38.80
2023-05-28T19:25:27.005Z,39.00
2023-05-28T19:27:28.950Z,39.00
2023-05-28T19:29:30.622Z,39.20
2023-05-28T19:31:32.375Z,39.30
2023-05-28T19:33:34.571Z,39.10
2023-05-28T19:35:36.305Z,39.20
2023-05-28T19:37:38.172Z,39.40
2023-05-28T19:39:39.885Z,39.50
2023-05-28T19:41:41.743Z,39.40
2023-05-28T19:43:44.021Z,40.10
2023-05-28T19:45:46.068Z,39.70
2023-05-28T19:47:47.841Z,39.60
2023-05-28T19:49:49.626Z,39.70
2023-05-28T19:51:51.445Z,39.80
2023-05-28T19:53:53.643Z,39.90
2023-05-28T19:55:55.538Z,40.10
2023-05-28T19:57:58.034Z,39.90
2023-05-28T19:59:59.915Z,40.00
2023-05-28T20:02:01.735Z,39.70
2023-05-28T20:04:03.539Z,40.00
2023-05-28T20:06:06.282Z,40.10
2023-05-28T20:08:08.278Z,40.10
2023-05-28T20:10:10.803Z,40.20
2023-05-28T20:12:12.543Z,40.30
2023-05-28T20:14:14.424Z,40.40
2023-05-28T20:16:18.479Z,40.50
2023-05-28T20:18:20.929Z,40.40
2023-05-28T20:20:22.725Z,40.70
2023-05-28T20:22:24.481Z,40.60
2023-05-28T20:24:26.189Z,40.70
2023-05-28T20:26:28.499Z,40.70
2023-05-28T20:28:30.482Z,40.60
2023-05-28T20:30:32.171Z,40.80
2023-05-28T20:32:34.297Z,40.80
2023-05-28T20:34:36.644Z,41.00
2023-05-28T20:36:38.393Z,40.90
2023-05-28T20:38:40.188Z,40.80
2023-05-28T20:40:42.499Z,40.60
2023-05-28T20:42:46.513Z,40.50
2023-05-28T20:44:48.379Z,40.70
2023-05-28T20:46:52.884Z,40.80
2023-05-28T20:48:54.542Z,40.90
2023-05-28T20:50:56.489Z,40.70
2023-05-28T20:52:59.102Z,40.80
2023-05-28T20:55:00.801Z,41.10
2023-05-28T20:57:06.761Z,41.20
2023-05-28T20:59:08.512Z,41.30
2023-05-28T21:01:10.290Z,41.30
2023-05-28T21:03:12.239Z,41.20
2023-05-28T21:05:14.165Z,41.20
2023-05-28T21:07:16.038Z,41.20
2023-05-28T21:09:17.795Z,41.20
2023-05-28T21:11:20.530Z,41.30
2023-05-28T21:13:22.512Z,41.40
2023-05-28T21:15:26.042Z,41.50
2023-05-28T21:17:27.819Z,41.40
2023-05-28T21:19:29.632Z,41.40
2023-05-28T21:21:31.463Z,41.30
2023-05-28T21:23:33.250Z,41.20
2023-05-28T21:25:34.985Z,41.30
2023-05-28T21:27:38.496Z,41.00
2023-05-28T21:29:40.264Z,41.10
2023-05-28T21:31:42.012Z,41.20
2023-05-28T21:33:43.689Z,41.20
2023-05-28T21:35:45.553Z,41.20
2023-05-28T21:37:47.586Z,41.30
2023-05-28T21:39:49.573Z,41.30
2023-05-28T21:41:51.365Z,41.30
2023-05-28T21:43:53.132Z,41.40
2023-05-28T21:45:55.256Z,41.40
2023-05-28T21:47:57.177Z,41.30
2023-05-28T21:49:58.895Z,41.40
2023-05-28T21:52:00.632Z,41.50
2023-05-28T21:54:02.416Z,41.50
2023-05-28T21:56:04.401Z,41.40
2023-05-28T21:58:06.314Z,42.00
2023-05-28T22:00:13.206Z,41.50
2023-05-28T22:02:17.694Z,41.30
2023-05-28T22:04:19.429Z,41.30
2023-05-28T22:06:22.071Z,41.40
2023-05-28T22:08:23.844Z,41.30
2023-05-28T22:10:25.675Z,41.30
2023-05-28T22:12:27.658Z,41.30
2023-05-28T22:14:29.360Z,41.30
2023-05-28T22:16:32.009Z,41.30
2023-05-28T22:18:33.953Z,41.40
2023-05-28T22:20:42.799Z,41.50
2023-05-28T22:22:45.734Z,41.50
2023-05-28T22:24:47.532Z,41.50
2023-05-28T22:26:49.290Z,41.40
2023-05-28T22:28:58.459Z,41.50
2023-05-28T22:31:01.550Z,41.50
2023-05-28T22:33:03.496Z,41.50
2023-05-28T22:35:06.178Z,41.40
2023-05-28T22:37:07.953Z,41.40
2023-05-28T22:39:10.065Z,41.30
2023-05-28T22:41:12.529Z,41.20
2023-05-28T22:43:14.452Z,41.30
2023-05-28T22:45:19.277Z,41.40
2023-05-28T22:47:22.051Z,41.40
2023-05-28T22:49:25.102Z,41.30
2023-05-28T22:51:26.840Z,41.30
2023-05-28T22:53:28.528Z,41.30
2023-05-28T22:55:31.404Z,41.30
2023-05-28T22:57:33.129Z,41.40
2023-05-28T22:59:34.807Z,41.60
2023-05-28T23:01:36.871Z,41.50
2023-05-28T23:03:38.835Z,41.40
2023-05-28T23:05:40.771Z,41.60
2023-05-28T23:07:42.722Z,41.60
2023-05-28T23:09:44.357Z,41.90
2023-05-28T23:11:46.318Z,41.90
2023-05-28T23:13:48.058Z,41.90
2023-05-28T23:15:49.730Z,41.90
2023-05-28T23:17:52.611Z,41.90
2023-05-28T23:19:56.631Z,42.00
2023-05-28T23:21:58.332Z,42.00
2023-05-28T23:24:01.003Z,42.00
2023-05-28T23:26:03.203Z,42.00
2023-05-28T23:28:04.926Z,42.10
2023-05-28T23:30:06.999Z,42.00
2023-05-28T23:32:09.057Z,42.00
2023-05-28T23:34:12.552Z,41.90
2023-05-28T23:36:14.256Z,42.00
2023-05-28T23:38:16.106Z,42.00
2023-05-28T23:40:18.236Z,42.10
2023-05-28T23:42:19.930Z,42.00
2023-05-28T23:44:21.683Z,41.90
2023-05-28T23:46:23.936Z,42.10
2023-05-28T23:48:25.803Z,42.10
2023-05-28T23:50:27.536Z,42.30
2023-05-28T23:52:29.286Z,42.30
2023-05-28T23:54:30.961Z,42.40
2023-05-28T23:56:33.244Z,42.40
2023-05-28T23:58:34.956Z,42.40
